Aeroporto :
LOGIN :

Iscrizione | Disclaimer

   EN    FR    IT 

 










Sommario :    VFR   VFR Marginale   IFR   IFR Intensivo   IFR Molto Intensivo
Visibilità : 
Base nubi : 
>= 8 km
>= 3000ft
5 / 8 km
1000 / 3000 ft
1500m / 5 km
500 / 1000 ft
800 / 1500m
200 / 500 ft
< 800m
< 200 ft
Simboli :   Temporali  Nebbia  Neve Forte  Precipitazioni Forti  Vento > 20 kt
SIGMETs :   Varie  Temporali  Ghiacco  Turbolenza  Onda orograficha  Ceneri Vulcaniche






- Altitudine del aeroporto : 400 ft
- Codice IATA : BNX


LQBK - Banja Luka

ULTIMO METAR :
  • 220500Z 16005KT 8000 NSC 05/05 Q1014 NOSIG

METARs OBSOLETI :
  • 220430Z 16003KT 6000 NSC 05/05 Q1014 NOSIG
  • 220400Z 17003KT 6000 NSC 06/05 Q1014 NOSIG
  • 220330Z 17004KT 6000 NSC 06/06 Q1014 NOSIG
  • 220300Z 16004KT 6000 NSC 06/06 Q1014 NOSIG
  • 220230Z 15006KT 6000 NSC 07/07 Q1014 NOSIG

TAF TAF LQBK
Valido dal 22 a 00 ore il 23 a 00 ore UTC


212300Z 2200/2224 18004KT 9999 SCT040 TX13/2213Z TN05/2206Z
PROB40
TEMPO 2202/2209 2000 BR
PROB30
TEMPO 2204/2208 0200 FG VV001



MetMap, La meteo Aeronautica in un colpo d'occhio ! - Copyright ORBIFLY Dicembre 2007 - Disclaimer

ORBIFLY MET'MAP TEAM :

Programmazione e sviluppo : Alexandra Zaïnal
Concezione e sviluppo : Baudouin d'Aumeries
Co-Programmazione e sviluppo : Marc-Olivier Méhu
Supporto tecnico e logistico : Manuel Goepfert
Aiuto per la traduzione : Arnaldo La Scala

Contatto : metmap@orbifly.com




FONTI E CREDITI :

   NOAA